sensor_id;sensor_type;location;lat;lon;timestamp;P1;durP1;ratioP1;P2;durP2;ratioP2
20294;SDS011;10306;52.128;5.208;2022-09-27T00:01:38;1.03;;;0.53;;
20294;SDS011;10306;52.128;5.208;2022-09-27T00:04:04;4.03;;;0.57;;
20294;SDS011;10306;52.128;5.208;2022-09-27T00:06:30;2.47;;;0.40;;
20294;SDS011;10306;52.128;5.208;2022-09-27T00:08:57;2.57;;;0.60;;
20294;SDS011;10306;52.128;5.208;2022-09-27T00:11:31;6.67;;;1.10;;
20294;SDS011;10306;52.128;5.208;2022-09-27T00:13:58;0.77;;;0.63;;
20294;SDS011;10306;52.128;5.208;2022-09-27T00:16:25;1.67;;;0.50;;
20294;SDS011;10306;52.128;5.208;2022-09-27T00:18:51;1.60;;;0.50;;
20294;SDS011;10306;52.128;5.208;2022-09-27T00:21:17;0.73;;;0.50;;
20294;SDS011;10306;52.128;5.208;2022-09-27T00:23:44;0.80;;;0.50;;
20294;SDS011;10306;52.128;5.208;2022-09-27T00:26:11;3.10;;;0.50;;
20294;SDS011;10306;52.128;5.208;2022-09-27T00:28:37;1.23;;;0.57;;
20294;SDS011;10306;52.128;5.208;2022-09-27T00:31:03;1.90;;;0.40;;
20294;SDS011;10306;52.128;5.208;2022-09-27T00:33:29;1.17;;;0.40;;
20294;SDS011;10306;52.128;5.208;2022-09-27T00:36:02;2.13;;;0.43;;
20294;SDS011;10306;52.128;5.208;2022-09-27T00:38:28;2.33;;;0.60;;
20294;SDS011;10306;52.128;5.208;2022-09-27T00:40:54;0.77;;;0.30;;
20294;SDS011;10306;52.128;5.208;2022-09-27T00:43:21;1.60;;;0.60;;
20294;SDS011;10306;52.128;5.208;2022-09-27T00:45:57;2.10;;;0.57;;
20294;SDS011;10306;52.128;5.208;2022-09-27T00:48:25;0.73;;;0.40;;
20294;SDS011;10306;52.128;5.208;2022-09-27T00:50:53;0.50;;;0.50;;
20294;SDS011;10306;52.128;5.208;2022-09-27T00:53:23;1.33;;;0.57;;
20294;SDS011;10306;52.128;5.208;2022-09-27T00:55:56;0.50;;;0.50;;
20294;SDS011;10306;52.128;5.208;2022-09-27T00:58:28;0.43;;;0.30;;
20294;SDS011;10306;52.128;5.208;2022-09-27T01:00:56;0.53;;;0.37;;
20294;SDS011;10306;52.128;5.208;2022-09-27T01:03:29;2.07;;;0.70;;
20294;SDS011;10306;52.128;5.208;2022-09-27T01:05:56;3.07;;;0.50;;
20294;SDS011;10306;52.128;5.208;2022-09-27T01:08:23;1.50;;;0.53;;
20294;SDS011;10306;52.128;5.208;2022-09-27T01:13:52;0.70;;;0.70;;
20294;SDS011;10306;52.128;5.208;2022-09-27T01:16:23;0.50;;;0.50;;
20294;SDS011;10306;52.128;5.208;2022-09-27T01:19:02;0.93;;;0.70;;
20294;SDS011;10306;52.128;5.208;2022-09-27T01:36:19;1.00;;;0.53;;
20294;SDS011;10306;52.128;5.208;2022-09-27T01:38:54;3.53;;;0.60;;
20294;SDS011;10306;52.128;5.208;2022-09-27T01:46:38;0.50;;;0.50;;
20294;SDS011;10306;52.128;5.208;2022-09-27T01:49:11;0.63;;;0.63;;
20294;SDS011;10306;52.128;5.208;2022-09-27T01:51:39;0.83;;;0.83;;
20294;SDS011;10306;52.128;5.208;2022-09-27T01:54:09;5.07;;;0.60;;
20294;SDS011;10306;52.128;5.208;2022-09-27T01:56:54;4.97;;;1.00;;
20294;SDS011;10306;52.128;5.208;2022-09-27T01:59:23;3.83;;;0.50;;
20294;SDS011;10306;52.128;5.208;2022-09-27T02:01:53;1.93;;;0.73;;
20294;SDS011;10306;52.128;5.208;2022-09-27T02:04:22;2.20;;;0.60;;
20294;SDS011;10306;52.128;5.208;2022-09-27T02:06:50;1.27;;;0.60;;
20294;SDS011;10306;52.128;5.208;2022-09-27T02:09:21;1.57;;;0.60;;
20294;SDS011;10306;52.128;5.208;2022-09-27T02:11:51;2.57;;;0.70;;
20294;SDS011;10306;52.128;5.208;2022-09-27T02:14:24;4.00;;;0.80;;
20294;SDS011;10306;52.128;5.208;2022-09-27T02:16:53;1.57;;;0.80;;
20294;SDS011;10306;52.128;5.208;2022-09-27T02:21:54;4.10;;;0.80;;
20294;SDS011;10306;52.128;5.208;2022-09-27T02:24:23;5.80;;;0.80;;
20294;SDS011;10306;52.128;5.208;2022-09-27T02:27:05;0.67;;;0.67;;
20294;SDS011;10306;52.128;5.208;2022-09-27T02:29:37;1.90;;;0.50;;
20294;SDS011;10306;52.128;5.208;2022-09-27T02:32:05;1.80;;;0.57;;
20294;SDS011;10306;52.128;5.208;2022-09-27T02:34:31;3.17;;;0.70;;
20294;SDS011;10306;52.128;5.208;2022-09-27T02:36:58;1.83;;;0.60;;
20294;SDS011;10306;52.128;5.208;2022-09-27T02:39:26;2.63;;;0.70;;
20294;SDS011;10306;52.128;5.208;2022-09-27T02:41:52;1.23;;;0.70;;
20294;SDS011;10306;52.128;5.208;2022-09-27T02:44:22;0.40;;;0.40;;
20294;SDS011;10306;52.128;5.208;2022-09-27T02:51:53;0.97;;;0.90;;
20294;SDS011;10306;52.128;5.208;2022-09-27T02:54:25;1.07;;;0.60;;
20294;SDS011;10306;52.128;5.208;2022-09-27T03:02:34;1.07;;;0.70;;
20294;SDS011;10306;52.128;5.208;2022-09-27T03:05:04;0.60;;;0.60;;
20294;SDS011;10306;52.128;5.208;2022-09-27T03:07:30;3.20;;;0.70;;
20294;SDS011;10306;52.128;5.208;2022-09-27T03:09:56;4.37;;;0.83;;
20294;SDS011;10306;52.128;5.208;2022-09-27T03:12:22;3.63;;;1.00;;
20294;SDS011;10306;52.128;5.208;2022-09-27T03:14:55;4.20;;;0.90;;
20294;SDS011;10306;52.128;5.208;2022-09-27T03:17:22;1.07;;;0.90;;
20294;SDS011;10306;52.128;5.208;2022-09-27T03:19:48;2.30;;;1.03;;
20294;SDS011;10306;52.128;5.208;2022-09-27T03:22:14;9.00;;;2.10;;
20294;SDS011;10306;52.128;5.208;2022-09-27T03:24:40;2.30;;;1.30;;
20294;SDS011;10306;52.128;5.208;2022-09-27T03:27:06;4.77;;;1.03;;
20294;SDS011;10306;52.128;5.208;2022-09-27T03:29:32;3.50;;;1.17;;
20294;SDS011;10306;52.128;5.208;2022-09-27T03:31:58;8.20;;;1.07;;
20294;SDS011;10306;52.128;5.208;2022-09-27T03:34:24;3.00;;;0.90;;
20294;SDS011;10306;52.128;5.208;2022-09-27T03:36:50;4.03;;;0.80;;
20294;SDS011;10306;52.128;5.208;2022-09-27T03:39:16;4.53;;;0.80;;
20294;SDS011;10306;52.128;5.208;2022-09-27T03:41:42;5.93;;;1.00;;
20294;SDS011;10306;52.128;5.208;2022-09-27T03:44:08;2.90;;;0.87;;
20294;SDS011;10306;52.128;5.208;2022-09-27T03:46:34;5.20;;;1.07;;
20294;SDS011;10306;52.128;5.208;2022-09-27T03:49:00;3.97;;;0.80;;
20294;SDS011;10306;52.128;5.208;2022-09-27T03:51:26;6.93;;;1.30;;
20294;SDS011;10306;52.128;5.208;2022-09-27T03:53:52;6.73;;;1.37;;
20294;SDS011;10306;52.128;5.208;2022-09-27T03:56:18;3.23;;;0.83;;
20294;SDS011;10306;52.128;5.208;2022-09-27T03:58:44;5.40;;;0.80;;
20294;SDS011;10306;52.128;5.208;2022-09-27T04:01:10;6.33;;;1.30;;
20294;SDS011;10306;52.128;5.208;2022-09-27T04:03:36;4.40;;;0.80;;
20294;SDS011;10306;52.128;5.208;2022-09-27T04:06:02;4.30;;;0.90;;
20294;SDS011;10306;52.128;5.208;2022-09-27T04:08:28;3.80;;;0.90;;
20294;SDS011;10306;52.128;5.208;2022-09-27T04:10:55;2.27;;;1.03;;
20294;SDS011;10306;52.128;5.208;2022-09-27T04:13:21;7.83;;;1.53;;
20294;SDS011;10306;52.128;5.208;2022-09-27T04:15:47;4.47;;;1.23;;
20294;SDS011;10306;52.128;5.208;2022-09-27T04:18:13;5.23;;;1.07;;
20294;SDS011;10306;52.128;5.208;2022-09-27T04:20:39;4.00;;;0.90;;
20294;SDS011;10306;52.128;5.208;2022-09-27T04:23:05;1.80;;;0.90;;
20294;SDS011;10306;52.128;5.208;2022-09-27T04:25:31;1.60;;;0.70;;
20294;SDS011;10306;52.128;5.208;2022-09-27T04:27:58;4.13;;;0.90;;
20294;SDS011;10306;52.128;5.208;2022-09-27T04:30:24;1.43;;;0.70;;
20294;SDS011;10306;52.128;5.208;2022-09-27T04:32:50;5.73;;;0.80;;
20294;SDS011;10306;52.128;5.208;2022-09-27T04:35:16;1.50;;;0.77;;
20294;SDS011;10306;52.128;5.208;2022-09-27T04:38:01;2.53;;;0.77;;
20294;SDS011;10306;52.128;5.208;2022-09-27T04:40:27;4.30;;;1.10;;
20294;SDS011;10306;52.128;5.208;2022-09-27T04:42:53;6.13;;;0.93;;
20294;SDS011;10306;52.128;5.208;2022-09-27T04:45:19;1.50;;;0.90;;
20294;SDS011;10306;52.128;5.208;2022-09-27T04:47:46;1.43;;;0.93;;
20294;SDS011;10306;52.128;5.208;2022-09-27T04:50:12;2.20;;;0.90;;
20294;SDS011;10306;52.128;5.208;2022-09-27T04:52:38;5.43;;;1.00;;
20294;SDS011;10306;52.128;5.208;2022-09-27T04:55:05;4.67;;;1.10;;
20294;SDS011;10306;52.128;5.208;2022-09-27T04:57:31;1.40;;;0.87;;
20294;SDS011;10306;52.128;5.208;2022-09-27T04:59:57;1.00;;;0.90;;
20294;SDS011;10306;52.128;5.208;2022-09-27T05:02:24;3.10;;;1.00;;
20294;SDS011;10306;52.128;5.208;2022-09-27T05:04:51;2.03;;;0.80;;
20294;SDS011;10306;52.128;5.208;2022-09-27T05:07:17;5.30;;;1.10;;
20294;SDS011;10306;52.128;5.208;2022-09-27T05:09:43;3.57;;;1.00;;
20294;SDS011;10306;52.128;5.208;2022-09-27T05:12:09;3.10;;;0.87;;
20294;SDS011;10306;52.128;5.208;2022-09-27T05:14:37;2.17;;;0.90;;
20294;SDS011;10306;52.128;5.208;2022-09-27T05:17:03;1.90;;;1.00;;
20294;SDS011;10306;52.128;5.208;2022-09-27T05:19:31;5.47;;;1.30;;
20294;SDS011;10306;52.128;5.208;2022-09-27T05:21:57;1.33;;;0.80;;
20294;SDS011;10306;52.128;5.208;2022-09-27T05:24:23;0.80;;;0.73;;
20294;SDS011;10306;52.128;5.208;2022-09-27T05:26:49;2.40;;;0.80;;
20294;SDS011;10306;52.128;5.208;2022-09-27T05:29:15;4.10;;;1.40;;
20294;SDS011;10306;52.128;5.208;2022-09-27T05:31:41;5.33;;;1.07;;
20294;SDS011;10306;52.128;5.208;2022-09-27T05:34:07;1.60;;;0.60;;
20294;SDS011;10306;52.128;5.208;2022-09-27T05:36:35;4.27;;;0.70;;
20294;SDS011;10306;52.128;5.208;2022-09-27T05:39:02;1.80;;;0.70;;
20294;SDS011;10306;52.128;5.208;2022-09-27T05:41:28;1.80;;;1.27;;
20294;SDS011;10306;52.128;5.208;2022-09-27T05:43:56;0.83;;;0.83;;
20294;SDS011;10306;52.128;5.208;2022-09-27T05:46:22;1.00;;;0.87;;
20294;SDS011;10306;52.128;5.208;2022-09-27T05:48:48;1.90;;;1.00;;
20294;SDS011;10306;52.128;5.208;2022-09-27T05:51:14;3.10;;;1.60;;
20294;SDS011;10306;52.128;5.208;2022-09-27T05:53:40;1.40;;;1.00;;
20294;SDS011;10306;52.128;5.208;2022-09-27T05:56:06;0.80;;;0.80;;
20294;SDS011;10306;52.128;5.208;2022-09-27T05:58:32;4.73;;;0.90;;
20294;SDS011;10306;52.128;5.208;2022-09-27T06:00:58;4.27;;;0.80;;
20294;SDS011;10306;52.128;5.208;2022-09-27T06:03:24;3.27;;;1.00;;
20294;SDS011;10306;52.128;5.208;2022-09-27T06:05:50;1.23;;;1.13;;
20294;SDS011;10306;52.128;5.208;2022-09-27T06:08:16;0.77;;;0.77;;
20294;SDS011;10306;52.128;5.208;2022-09-27T06:10:44;3.60;;;0.90;;
20294;SDS011;10306;52.128;5.208;2022-09-27T06:13:11;1.03;;;0.80;;
20294;SDS011;10306;52.128;5.208;2022-09-27T06:15:39;2.10;;;0.87;;
20294;SDS011;10306;52.128;5.208;2022-09-27T06:18:06;1.20;;;1.10;;
20294;SDS011;10306;52.128;5.208;2022-09-27T06:20:33;2.53;;;0.97;;
20294;SDS011;10306;52.128;5.208;2022-09-27T06:25:36;2.90;;;0.70;;
20294;SDS011;10306;52.128;5.208;2022-09-27T06:28:02;4.30;;;1.30;;
20294;SDS011;10306;52.128;5.208;2022-09-27T06:30:29;4.10;;;0.87;;
20294;SDS011;10306;52.128;5.208;2022-09-27T06:32:58;1.10;;;0.80;;
20294;SDS011;10306;52.128;5.208;2022-09-27T06:35:25;2.17;;;0.90;;
20294;SDS011;10306;52.128;5.208;2022-09-27T06:37:51;2.10;;;0.97;;
20294;SDS011;10306;52.128;5.208;2022-09-27T06:40:18;3.23;;;1.03;;
20294;SDS011;10306;52.128;5.208;2022-09-27T06:42:44;6.13;;;1.13;;
20294;SDS011;10306;52.128;5.208;2022-09-27T06:45:11;1.23;;;0.93;;
20294;SDS011;10306;52.128;5.208;2022-09-27T06:47:37;0.90;;;0.90;;
20294;SDS011;10306;52.128;5.208;2022-09-27T06:50:03;0.60;;;0.60;;
20294;SDS011;10306;52.128;5.208;2022-09-27T06:52:33;2.67;;;0.90;;
20294;SDS011;10306;52.128;5.208;2022-09-27T06:55:00;3.13;;;0.80;;
20294;SDS011;10306;52.128;5.208;2022-09-27T06:57:26;3.03;;;0.90;;
20294;SDS011;10306;52.128;5.208;2022-09-27T07:00:11;2.40;;;0.87;;
20294;SDS011;10306;52.128;5.208;2022-09-27T07:02:50;2.47;;;0.90;;
20294;SDS011;10306;52.128;5.208;2022-09-27T07:05:16;2.20;;;0.90;;
20294;SDS011;10306;52.128;5.208;2022-09-27T07:07:42;2.43;;;0.90;;
20294;SDS011;10306;52.128;5.208;2022-09-27T07:10:09;4.03;;;1.30;;
20294;SDS011;10306;52.128;5.208;2022-09-27T07:12:35;2.23;;;1.20;;
20294;SDS011;10306;52.128;5.208;2022-09-27T07:15:02;0.60;;;0.60;;
20294;SDS011;10306;52.128;5.208;2022-09-27T07:17:28;5.43;;;1.20;;
20294;SDS011;10306;52.128;5.208;2022-09-27T07:19:54;3.97;;;0.73;;
20294;SDS011;10306;52.128;5.208;2022-09-27T07:22:20;1.53;;;0.97;;
20294;SDS011;10306;52.128;5.208;2022-09-27T07:24:46;1.67;;;0.80;;
20294;SDS011;10306;52.128;5.208;2022-09-27T07:27:12;1.07;;;0.70;;
20294;SDS011;10306;52.128;5.208;2022-09-27T07:29:39;1.07;;;0.80;;
20294;SDS011;10306;52.128;5.208;2022-09-27T07:32:05;3.50;;;1.10;;
20294;SDS011;10306;52.128;5.208;2022-09-27T07:34:33;1.17;;;0.97;;
20294;SDS011;10306;52.128;5.208;2022-09-27T07:36:59;1.23;;;0.87;;
20294;SDS011;10306;52.128;5.208;2022-09-27T07:39:27;2.97;;;1.13;;
20294;SDS011;10306;52.128;5.208;2022-09-27T07:41:53;1.03;;;0.63;;
20294;SDS011;10306;52.128;5.208;2022-09-27T07:44:19;3.00;;;0.83;;
20294;SDS011;10306;52.128;5.208;2022-09-27T07:46:45;3.37;;;1.00;;
20294;SDS011;10306;52.128;5.208;2022-09-27T07:49:11;0.97;;;0.93;;
20294;SDS011;10306;52.128;5.208;2022-09-27T07:51:37;5.00;;;0.93;;
20294;SDS011;10306;52.128;5.208;2022-09-27T07:54:03;3.23;;;1.23;;
20294;SDS011;10306;52.128;5.208;2022-09-27T07:56:29;3.20;;;1.20;;
20294;SDS011;10306;52.128;5.208;2022-09-27T07:58:56;1.73;;;1.00;;
20294;SDS011;10306;52.128;5.208;2022-09-27T08:01:23;2.13;;;0.90;;
20294;SDS011;10306;52.128;5.208;2022-09-27T08:03:49;3.33;;;1.47;;
20294;SDS011;10306;52.128;5.208;2022-09-27T08:06:14;3.20;;;1.17;;
20294;SDS011;10306;52.128;5.208;2022-09-27T08:08:41;1.20;;;1.10;;
20294;SDS011;10306;52.128;5.208;2022-09-27T08:11:11;6.13;;;1.10;;
20294;SDS011;10306;52.128;5.208;2022-09-27T08:13:39;3.17;;;1.23;;
20294;SDS011;10306;52.128;5.208;2022-09-27T08:16:05;3.37;;;1.17;;
20294;SDS011;10306;52.128;5.208;2022-09-27T08:18:31;3.00;;;1.03;;
20294;SDS011;10306;52.128;5.208;2022-09-27T08:20:58;1.50;;;1.13;;
20294;SDS011;10306;52.128;5.208;2022-09-27T08:23:24;1.80;;;1.40;;
20294;SDS011;10306;52.128;5.208;2022-09-27T08:25:53;2.67;;;1.30;;
20294;SDS011;10306;52.128;5.208;2022-09-27T08:28:19;2.00;;;1.33;;
20294;SDS011;10306;52.128;5.208;2022-09-27T08:30:46;4.63;;;1.30;;
20294;SDS011;10306;52.128;5.208;2022-09-27T08:33:12;1.80;;;0.80;;
20294;SDS011;10306;52.128;5.208;2022-09-27T08:35:38;1.00;;;0.93;;
20294;SDS011;10306;52.128;5.208;2022-09-27T08:38:04;1.20;;;1.00;;
20294;SDS011;10306;52.128;5.208;2022-09-27T08:40:41;2.03;;;0.57;;
20294;SDS011;10306;52.128;5.208;2022-09-27T08:43:12;2.10;;;0.67;;
20294;SDS011;10306;52.128;5.208;2022-09-27T08:48:27;4.03;;;1.17;;
20294;SDS011;10306;52.128;5.208;2022-09-27T08:50:53;1.33;;;0.90;;
20294;SDS011;10306;52.128;5.208;2022-09-27T08:53:30;2.67;;;0.80;;
20294;SDS011;10306;52.128;5.208;2022-09-27T08:55:58;3.83;;;1.00;;
20294;SDS011;10306;52.128;5.208;2022-09-27T09:01:03;2.17;;;0.67;;
20294;SDS011;10306;52.128;5.208;2022-09-27T09:03:31;2.90;;;0.80;;
20294;SDS011;10306;52.128;5.208;2022-09-27T09:06:07;2.20;;;0.70;;
20294;SDS011;10306;52.128;5.208;2022-09-27T09:08:44;2.03;;;1.30;;
20294;SDS011;10306;52.128;5.208;2022-09-27T09:14:56;2.90;;;1.40;;
20294;SDS011;10306;52.128;5.208;2022-09-27T09:17:32;2.40;;;0.70;;
20294;SDS011;10306;52.128;5.208;2022-09-27T09:23:15;2.10;;;0.80;;
20294;SDS011;10306;52.128;5.208;2022-09-27T09:25:46;6.37;;;0.90;;
20294;SDS011;10306;52.128;5.208;2022-09-27T09:30:55;0.50;;;0.50;;
20294;SDS011;10306;52.128;5.208;2022-09-27T09:35:52;2.20;;;0.80;;
20294;SDS011;10306;52.128;5.208;2022-09-27T09:38:23;0.60;;;0.40;;
20294;SDS011;10306;52.128;5.208;2022-09-27T09:40:53;2.10;;;0.80;;
20294;SDS011;10306;52.128;5.208;2022-09-27T09:43:26;1.50;;;1.40;;
20294;SDS011;10306;52.128;5.208;2022-09-27T09:48:40;2.00;;;1.90;;
20294;SDS011;10306;52.128;5.208;2022-09-27T09:51:09;0.80;;;0.80;;
20294;SDS011;10306;52.128;5.208;2022-09-27T09:56:25;0.60;;;0.60;;
20294;SDS011;10306;52.128;5.208;2022-09-27T10:01:26;1.17;;;0.70;;
20294;SDS011;10306;52.128;5.208;2022-09-27T10:03:54;2.00;;;0.70;;
20294;SDS011;10306;52.128;5.208;2022-09-27T10:06:21;0.63;;;0.50;;
20294;SDS011;10306;52.128;5.208;2022-09-27T10:08:47;3.53;;;0.83;;
20294;SDS011;10306;52.128;5.208;2022-09-27T10:11:19;1.60;;;0.93;;
20294;SDS011;10306;52.128;5.208;2022-09-27T10:13:46;1.20;;;0.70;;
20294;SDS011;10306;52.128;5.208;2022-09-27T10:16:13;1.10;;;0.67;;
20294;SDS011;10306;52.128;5.208;2022-09-27T10:18:40;1.63;;;0.60;;
20294;SDS011;10306;52.128;5.208;2022-09-27T10:21:10;1.13;;;0.50;;
20294;SDS011;10306;52.128;5.208;2022-09-27T10:24:00;2.63;;;0.80;;
20294;SDS011;10306;52.128;5.208;2022-09-27T10:26:23;1.90;;;0.90;;
20294;SDS011;10306;52.128;5.208;2022-09-27T10:28:49;3.83;;;0.80;;
20294;SDS011;10306;52.128;5.208;2022-09-27T10:31:16;2.40;;;0.80;;
20294;SDS011;10306;52.128;5.208;2022-09-27T10:33:51;0.80;;;0.80;;
20294;SDS011;10306;52.128;5.208;2022-09-27T10:36:23;2.00;;;0.60;;
20294;SDS011;10306;52.128;5.208;2022-09-27T10:38:53;2.20;;;0.73;;
20294;SDS011;10306;52.128;5.208;2022-09-27T10:41:30;1.70;;;0.60;;
20294;SDS011;10306;52.128;5.208;2022-09-27T10:43:56;2.43;;;0.50;;
20294;SDS011;10306;52.128;5.208;2022-09-27T10:46:26;3.63;;;0.73;;
20294;SDS011;10306;52.128;5.208;2022-09-27T10:49:09;0.70;;;0.70;;
20294;SDS011;10306;52.128;5.208;2022-09-27T10:51:38;1.40;;;0.80;;
20294;SDS011;10306;52.128;5.208;2022-09-27T10:54:04;1.67;;;0.70;;
20294;SDS011;10306;52.128;5.208;2022-09-27T10:56:31;0.70;;;0.60;;
20294;SDS011;10306;52.128;5.208;2022-09-27T10:58:58;0.60;;;0.60;;
20294;SDS011;10306;52.128;5.208;2022-09-27T11:01:25;0.47;;;0.47;;
20294;SDS011;10306;52.128;5.208;2022-09-27T11:03:55;2.17;;;0.53;;
20294;SDS011;10306;52.128;5.208;2022-09-27T11:08:50;1.23;;;0.80;;
20294;SDS011;10306;52.128;5.208;2022-09-27T11:11:18;2.00;;;0.57;;
20294;SDS011;10306;52.128;5.208;2022-09-27T11:19:06;0.70;;;0.70;;
20294;SDS011;10306;52.128;5.208;2022-09-27T11:26:51;0.93;;;0.50;;
20294;SDS011;10306;52.128;5.208;2022-09-27T11:41:57;0.60;;;0.60;;
20294;SDS011;10306;52.128;5.208;2022-09-27T11:47:08;0.97;;;0.60;;
20294;SDS011;10306;52.128;5.208;2022-09-27T11:49:58;0.40;;;0.40;;
20294;SDS011;10306;52.128;5.208;2022-09-27T11:52:30;1.53;;;0.50;;
20294;SDS011;10306;52.128;5.208;2022-09-27T12:00:15;0.50;;;0.50;;
20294;SDS011;10306;52.128;5.208;2022-09-27T12:05:17;0.63;;;0.60;;
20294;SDS011;10306;52.128;5.208;2022-09-27T12:10:19;1.33;;;0.80;;
20294;SDS011;10306;52.128;5.208;2022-09-27T12:12:49;0.73;;;0.73;;
20294;SDS011;10306;52.128;5.208;2022-09-27T12:17:45;1.03;;;0.93;;
20294;SDS011;10306;52.128;5.208;2022-09-27T12:20:18;0.70;;;0.70;;
20294;SDS011;10306;52.128;5.208;2022-09-27T12:25:13;0.90;;;0.70;;
20294;SDS011;10306;52.128;5.208;2022-09-27T12:28:00;2.00;;;0.70;;
20294;SDS011;10306;52.128;5.208;2022-09-27T12:30:28;2.03;;;0.60;;
20294;SDS011;10306;52.128;5.208;2022-09-27T12:33:06;1.07;;;0.90;;
20294;SDS011;10306;52.128;5.208;2022-09-27T12:35:34;3.97;;;2.90;;
20294;SDS011;10306;52.128;5.208;2022-09-27T12:40:34;2.47;;;1.67;;
20294;SDS011;10306;52.128;5.208;2022-09-27T12:43:05;1.10;;;0.60;;
20294;SDS011;10306;52.128;5.208;2022-09-27T12:50:43;0.83;;;0.60;;
20294;SDS011;10306;52.128;5.208;2022-09-27T12:53:25;0.53;;;0.53;;
20294;SDS011;10306;52.128;5.208;2022-09-27T12:56:05;1.63;;;0.77;;
20294;SDS011;10306;52.128;5.208;2022-09-27T12:58:40;2.17;;;0.73;;
20294;SDS011;10306;52.128;5.208;2022-09-27T13:04:09;1.10;;;0.77;;
20294;SDS011;10306;52.128;5.208;2022-09-27T13:06:33;0.80;;;0.60;;
20294;SDS011;10306;52.128;5.208;2022-09-27T13:11:45;1.40;;;1.30;;
20294;SDS011;10306;52.128;5.208;2022-09-27T13:14:15;0.60;;;0.60;;
20294;SDS011;10306;52.128;5.208;2022-09-27T13:16:42;1.23;;;0.90;;
20294;SDS011;10306;52.128;5.208;2022-09-27T13:19:55;0.70;;;0.70;;
20294;SDS011;10306;52.128;5.208;2022-09-27T13:21:56;1.70;;;0.80;;
20294;SDS011;10306;52.128;5.208;2022-09-27T13:29:49;0.67;;;0.67;;
20294;SDS011;10306;52.128;5.208;2022-09-27T13:32:22;0.60;;;0.60;;
20294;SDS011;10306;52.128;5.208;2022-09-27T13:34:50;1.43;;;0.70;;
20294;SDS011;10306;52.128;5.208;2022-09-27T13:42:49;0.63;;;0.63;;
20294;SDS011;10306;52.128;5.208;2022-09-27T13:45:23;0.90;;;0.60;;
20294;SDS011;10306;52.128;5.208;2022-09-27T13:47:53;0.77;;;0.60;;
20294;SDS011;10306;52.128;5.208;2022-09-27T13:55:48;0.40;;;0.40;;
20294;SDS011;10306;52.128;5.208;2022-09-27T14:00:47;0.50;;;0.50;;
20294;SDS011;10306;52.128;5.208;2022-09-27T14:03:14;0.80;;;0.60;;
20294;SDS011;10306;52.128;5.208;2022-09-27T14:08:17;0.80;;;0.50;;
20294;SDS011;10306;52.128;5.208;2022-09-27T14:10:44;0.40;;;0.40;;
20294;SDS011;10306;52.128;5.208;2022-09-27T14:13:10;0.50;;;0.50;;
20294;SDS011;10306;52.128;5.208;2022-09-27T14:15:38;0.50;;;0.50;;
20294;SDS011;10306;52.128;5.208;2022-09-27T14:18:04;1.37;;;0.53;;
20294;SDS011;10306;52.128;5.208;2022-09-27T14:20:39;1.27;;;0.60;;
20294;SDS011;10306;52.128;5.208;2022-09-27T14:23:11;0.93;;;0.80;;
20294;SDS011;10306;52.128;5.208;2022-09-27T14:25:42;0.70;;;0.70;;
20294;SDS011;10306;52.128;5.208;2022-09-27T14:28:19;1.13;;;0.73;;
20294;SDS011;10306;52.128;5.208;2022-09-27T14:30:45;0.50;;;0.50;;
20294;SDS011;10306;52.128;5.208;2022-09-27T14:33:25;0.50;;;0.50;;
20294;SDS011;10306;52.128;5.208;2022-09-27T14:35:52;2.23;;;0.83;;
20294;SDS011;10306;52.128;5.208;2022-09-27T14:38:36;1.43;;;0.63;;
20294;SDS011;10306;52.128;5.208;2022-09-27T14:41:03;0.67;;;0.60;;
20294;SDS011;10306;52.128;5.208;2022-09-27T14:43:31;1.00;;;0.77;;
20294;SDS011;10306;52.128;5.208;2022-09-27T14:45:58;1.00;;;0.70;;
20294;SDS011;10306;52.128;5.208;2022-09-27T14:48:35;1.73;;;0.90;;
20294;SDS011;10306;52.128;5.208;2022-09-27T14:51:02;0.50;;;0.50;;
20294;SDS011;10306;52.128;5.208;2022-09-27T14:53:30;1.60;;;0.80;;
20294;SDS011;10306;52.128;5.208;2022-09-27T14:55:56;0.60;;;0.47;;
20294;SDS011;10306;52.128;5.208;2022-09-27T14:58:23;4.07;;;0.63;;
20294;SDS011;10306;52.128;5.208;2022-09-27T15:00:50;2.50;;;0.80;;
20294;SDS011;10306;52.128;5.208;2022-09-27T15:03:35;3.07;;;0.70;;
20294;SDS011;10306;52.128;5.208;2022-09-27T15:06:03;0.70;;;0.70;;
20294;SDS011;10306;52.128;5.208;2022-09-27T15:08:29;0.70;;;0.70;;
20294;SDS011;10306;52.128;5.208;2022-09-27T15:11:00;0.60;;;0.60;;
20294;SDS011;10306;52.128;5.208;2022-09-27T15:13:26;1.17;;;0.70;;
20294;SDS011;10306;52.128;5.208;2022-09-27T15:15:52;1.27;;;0.80;;
20294;SDS011;10306;52.128;5.208;2022-09-27T15:19:02;1.57;;;1.00;;
20294;SDS011;10306;52.128;5.208;2022-09-27T15:21:10;1.47;;;0.70;;
20294;SDS011;10306;52.128;5.208;2022-09-27T15:23:40;1.37;;;0.70;;
20294;SDS011;10306;52.128;5.208;2022-09-27T15:26:12;3.33;;;0.80;;
20294;SDS011;10306;52.128;5.208;2022-09-27T15:28:43;1.30;;;0.93;;
20294;SDS011;10306;52.128;5.208;2022-09-27T15:31:09;0.90;;;0.77;;
20294;SDS011;10306;52.128;5.208;2022-09-27T15:33:36;1.80;;;0.80;;
20294;SDS011;10306;52.128;5.208;2022-09-27T15:36:03;3.50;;;1.13;;
20294;SDS011;10306;52.128;5.208;2022-09-27T15:38:30;0.80;;;0.80;;
20294;SDS011;10306;52.128;5.208;2022-09-27T15:43:30;0.87;;;0.87;;
20294;SDS011;10306;52.128;5.208;2022-09-27T15:45:57;0.80;;;0.80;;
20294;SDS011;10306;52.128;5.208;2022-09-27T15:48:26;1.40;;;1.30;;
20294;SDS011;10306;52.128;5.208;2022-09-27T15:50:52;2.10;;;1.20;;
20294;SDS011;10306;52.128;5.208;2022-09-27T15:56:00;1.10;;;1.10;;
20294;SDS011;10306;52.128;5.208;2022-09-27T15:58:26;0.90;;;0.83;;
20294;SDS011;10306;52.128;5.208;2022-09-27T16:00:59;1.47;;;1.00;;
20294;SDS011;10306;52.128;5.208;2022-09-27T16:03:32;1.23;;;0.90;;
20294;SDS011;10306;52.128;5.208;2022-09-27T16:05:59;2.00;;;1.00;;
20294;SDS011;10306;52.128;5.208;2022-09-27T16:08:26;2.20;;;1.00;;
20294;SDS011;10306;52.128;5.208;2022-09-27T16:10:53;2.03;;;1.30;;
20294;SDS011;10306;52.128;5.208;2022-09-27T16:13:20;2.30;;;1.20;;
20294;SDS011;10306;52.128;5.208;2022-09-27T16:15:46;2.47;;;1.30;;
20294;SDS011;10306;52.128;5.208;2022-09-27T16:18:13;2.27;;;1.30;;
20294;SDS011;10306;52.128;5.208;2022-09-27T16:20:39;1.40;;;1.30;;
20294;SDS011;10306;52.128;5.208;2022-09-27T16:23:05;2.50;;;1.17;;
20294;SDS011;10306;52.128;5.208;2022-09-27T16:25:32;1.30;;;1.20;;
20294;SDS011;10306;52.128;5.208;2022-09-27T16:27:58;1.20;;;1.10;;
20294;SDS011;10306;52.128;5.208;2022-09-27T16:30:25;1.73;;;1.23;;
20294;SDS011;10306;52.128;5.208;2022-09-27T16:32:51;4.07;;;1.40;;
20294;SDS011;10306;52.128;5.208;2022-09-27T16:35:20;2.20;;;2.00;;
20294;SDS011;10306;52.128;5.208;2022-09-27T16:37:46;3.50;;;1.70;;
20294;SDS011;10306;52.128;5.208;2022-09-27T16:40:12;1.90;;;1.50;;
20294;SDS011;10306;52.128;5.208;2022-09-27T16:42:39;2.63;;;1.50;;
20294;SDS011;10306;52.128;5.208;2022-09-27T16:45:06;4.03;;;1.77;;
20294;SDS011;10306;52.128;5.208;2022-09-27T16:47:32;5.57;;;2.03;;
20294;SDS011;10306;52.128;5.208;2022-09-27T16:49:59;2.80;;;1.70;;
20294;SDS011;10306;52.128;5.208;2022-09-27T16:52:44;2.13;;;1.80;;
20294;SDS011;10306;52.128;5.208;2022-09-27T16:55:13;3.07;;;1.47;;
20294;SDS011;10306;52.128;5.208;2022-09-27T16:57:42;2.47;;;1.60;;
20294;SDS011;10306;52.128;5.208;2022-09-27T17:00:08;3.60;;;1.60;;
20294;SDS011;10306;52.128;5.208;2022-09-27T17:02:34;1.90;;;1.80;;
20294;SDS011;10306;52.128;5.208;2022-09-27T17:05:00;4.33;;;2.27;;
20294;SDS011;10306;52.128;5.208;2022-09-27T17:07:26;1.97;;;1.80;;
20294;SDS011;10306;52.128;5.208;2022-09-27T17:09:52;2.47;;;2.30;;
20294;SDS011;10306;52.128;5.208;2022-09-27T17:12:18;3.37;;;1.97;;
20294;SDS011;10306;52.128;5.208;2022-09-27T17:14:44;2.70;;;1.33;;
20294;SDS011;10306;52.128;5.208;2022-09-27T17:17:09;2.70;;;1.63;;
20294;SDS011;10306;52.128;5.208;2022-09-27T17:19:35;1.63;;;1.53;;
20294;SDS011;10306;52.128;5.208;2022-09-27T17:22:07;2.33;;;2.07;;
20294;SDS011;10306;52.128;5.208;2022-09-27T17:24:33;3.07;;;2.40;;